sensor_id;sensor_type;location;lat;lon;timestamp;temperature;humidity
10384;DHT22;5238;43.508;4.980;2022-11-20T00:21:03;10.40;91.30
10384;DHT22;5238;43.508;4.980;2022-11-20T00:30:34;10.50;91.30
10384;DHT22;5238;43.508;4.980;2022-11-20T00:40:14;10.50;91.30
10384;DHT22;5238;43.508;4.980;2022-11-20T00:42:44;10.50;91.30
10384;DHT22;5238;43.508;4.980;2022-11-20T00:45:44;10.40;91.30
10384;DHT22;5238;43.508;4.980;2022-11-20T00:48:12;10.40;91.30
10384;DHT22;5238;43.508;4.980;2022-11-20T00:50:42;10.40;91.30
10384;DHT22;5238;43.508;4.980;2022-11-20T00:53:10;10.40;91.30
10384;DHT22;5238;43.508;4.980;2022-11-20T01:19:52;10.30;91.30
10384;DHT22;5238;43.508;4.980;2022-11-20T01:25:26;10.30;91.30
10384;DHT22;5238;43.508;4.980;2022-11-20T01:38:06;10.10;91.30
10384;DHT22;5238;43.508;4.980;2022-11-20T01:41:08;10.10;91.30
10384;DHT22;5238;43.508;4.980;2022-11-20T01:43:51;10.10;91.30
10384;DHT22;5238;43.508;4.980;2022-11-20T01:53:35;10.10;91.30
10384;DHT22;5238;43.508;4.980;2022-11-20T02:03:10;10.10;91.30
10384;DHT22;5238;43.508;4.980;2022-11-20T02:12:52;10.20;91.30
10384;DHT22;5238;43.508;4.980;2022-11-20T02:39:35;10.20;91.30
10384;DHT22;5238;43.508;4.980;2022-11-20T02:42:19;10.20;91.30
10384;DHT22;5238;43.508;4.980;2022-11-20T02:45:00;10.20;91.30
10384;DHT22;5238;43.508;4.980;2022-11-20T02:47:53;10.20;91.30
10384;DHT22;5238;43.508;4.980;2022-11-20T02:50:44;10.20;91.30
10384;DHT22;5238;43.508;4.980;2022-11-20T02:53:24;10.20;91.30
10384;DHT22;5238;43.508;4.980;2022-11-20T02:59:13;10.20;91.30
10384;DHT22;5238;43.508;4.980;2022-11-20T03:05:28;10.20;91.30
10384;DHT22;5238;43.508;4.980;2022-11-20T03:11:38;10.20;91.30
10384;DHT22;5238;43.508;4.980;2022-11-20T03:21:25;10.20;91.30
10384;DHT22;5238;43.508;4.980;2022-11-20T04:14:34;10.10;91.30
10384;DHT22;5238;43.508;4.980;2022-11-20T04:27:06;10.10;91.30
10384;DHT22;5238;43.508;4.980;2022-11-20T04:39:52;10.10;91.30
10384;DHT22;5238;43.508;4.980;2022-11-20T04:42:21;10.20;91.30
10384;DHT22;5238;43.508;4.980;2022-11-20T05:03:15;10.20;91.30
10384;DHT22;5238;43.508;4.980;2022-11-20T05:06:14;10.20;91.30
10384;DHT22;5238;43.508;4.980;2022-11-20T05:16:02;10.20;91.30
10384;DHT22;5238;43.508;4.980;2022-11-20T05:22:07;10.10;91.30
10384;DHT22;5238;43.508;4.980;2022-11-20T05:45:12;9.80;91.30
10384;DHT22;5238;43.508;4.980;2022-11-20T05:51:03;9.70;91.30
10384;DHT22;5238;43.508;4.980;2022-11-20T06:07:24;9.50;91.30
10384;DHT22;5238;43.508;4.980;2022-11-20T06:10:12;9.40;91.30
10384;DHT22;5238;43.508;4.980;2022-11-20T06:29:24;9.30;91.30
10384;DHT22;5238;43.508;4.980;2022-11-20T06:32:13;9.30;91.30
10384;DHT22;5238;43.508;4.980;2022-11-20T06:34:54;9.30;91.30
10384;DHT22;5238;43.508;4.980;2022-11-20T06:37:44;9.20;91.30
10384;DHT22;5238;43.508;4.980;2022-11-20T06:40:39;9.20;91.30
10384;DHT22;5238;43.508;4.980;2022-11-20T06:47:29;9.20;91.30
10384;DHT22;5238;43.508;4.980;2022-11-20T06:50:17;9.20;91.30
10384;DHT22;5238;43.508;4.980;2022-11-20T06:53:22;9.10;91.30
10384;DHT22;5238;43.508;4.980;2022-11-20T06:56:07;9.10;91.30
10384;DHT22;5238;43.508;4.980;2022-11-20T07:05:46;9.10;91.30
10384;DHT22;5238;43.508;4.980;2022-11-20T07:14:56;9.10;91.30
10384;DHT22;5238;43.508;4.980;2022-11-20T07:34:24;10.30;91.30
10384;DHT22;5238;43.508;4.980;2022-11-20T07:40:14;10.70;91.30
10384;DHT22;5238;43.508;4.980;2022-11-20T07:42:47;10.90;91.30
10384;DHT22;5238;43.508;4.980;2022-11-20T08:24:18;12.90;91.30
10384;DHT22;5238;43.508;4.980;2022-11-20T08:30:09;13.20;91.30
10384;DHT22;5238;43.508;4.980;2022-11-20T08:39:45;14.10;91.30
10384;DHT22;5238;43.508;4.980;2022-11-20T08:42:15;14.40;91.30
10384;DHT22;5238;43.508;4.980;2022-11-20T08:44:54;14.60;91.30
10384;DHT22;5238;43.508;4.980;2022-11-20T08:47:24;14.80;91.30
10384;DHT22;5238;43.508;4.980;2022-11-20T08:50:13;15.00;91.30
10384;DHT22;5238;43.508;4.980;2022-11-20T08:52:54;15.10;91.30
10384;DHT22;5238;43.508;4.980;2022-11-20T08:55:32;15.30;91.30
10384;DHT22;5238;43.508;4.980;2022-11-20T08:58:03;15.40;91.30
10384;DHT22;5238;43.508;4.980;2022-11-20T09:00:30;15.60;91.30
10384;DHT22;5238;43.508;4.980;2022-11-20T09:03:00;15.70;91.30
10384;DHT22;5238;43.508;4.980;2022-11-20T09:05:30;15.80;91.30
10384;DHT22;5238;43.508;4.980;2022-11-20T09:08:00;15.90;91.30
10384;DHT22;5238;43.508;4.980;2022-11-20T09:10:34;16.00;91.30
10384;DHT22;5238;43.508;4.980;2022-11-20T09:13:19;16.00;91.30
10384;DHT22;5238;43.508;4.980;2022-11-20T09:15:47;16.00;91.30
10384;DHT22;5238;43.508;4.980;2022-11-20T09:18:14;16.10;91.30
10384;DHT22;5238;43.508;4.980;2022-11-20T09:20:42;16.10;91.30
10384;DHT22;5238;43.508;4.980;2022-11-20T09:23:11;16.10;91.30
10384;DHT22;5238;43.508;4.980;2022-11-20T09:25:41;16.10;91.30
10384;DHT22;5238;43.508;4.980;2022-11-20T09:28:11;16.20;91.30
10384;DHT22;5238;43.508;4.980;2022-11-20T09:30:41;16.20;91.30
10384;DHT22;5238;43.508;4.980;2022-11-20T09:33:10;16.30;91.30
10384;DHT22;5238;43.508;4.980;2022-11-20T09:35:41;16.30;91.30
10384;DHT22;5238;43.508;4.980;2022-11-20T09:38:10;16.30;91.30
10384;DHT22;5238;43.508;4.980;2022-11-20T09:41:01;16.30;91.30
10384;DHT22;5238;43.508;4.980;2022-11-20T09:43:56;16.40;91.30
10384;DHT22;5238;43.508;4.980;2022-11-20T09:46:44;16.40;91.30
10384;DHT22;5238;43.508;4.980;2022-11-20T09:49:26;16.50;91.30
10384;DHT22;5238;43.508;4.980;2022-11-20T09:52:14;16.50;91.30
10384;DHT22;5238;43.508;4.980;2022-11-20T09:54:47;16.40;91.30
10384;DHT22;5238;43.508;4.980;2022-11-20T09:57:22;16.50;91.30
10384;DHT22;5238;43.508;4.980;2022-11-20T09:59:56;16.60;91.30
10384;DHT22;5238;43.508;4.980;2022-11-20T10:02:29;16.60;91.30
10384;DHT22;5238;43.508;4.980;2022-11-20T10:05:09;16.70;91.30
10384;DHT22;5238;43.508;4.980;2022-11-20T10:25:05;16.50;91.30
10384;DHT22;5238;43.508;4.980;2022-11-20T10:28:21;16.40;91.30
10384;DHT22;5238;43.508;4.980;2022-11-20T10:34:52;16.20;91.30
10384;DHT22;5238;43.508;4.980;2022-11-20T10:44:30;16.20;91.30
10384;DHT22;5238;43.508;4.980;2022-11-20T10:47:21;16.20;91.30
10384;DHT22;5238;43.508;4.980;2022-11-20T10:49:55;16.10;91.30
10384;DHT22;5238;43.508;4.980;2022-11-20T10:53:07;16.00;91.30
10384;DHT22;5238;43.508;4.980;2022-11-20T10:56:02;16.00;91.30
10384;DHT22;5238;43.508;4.980;2022-11-20T10:58:38;16.00;91.30
10384;DHT22;5238;43.508;4.980;2022-11-20T11:01:14;16.00;91.30
10384;DHT22;5238;43.508;4.980;2022-11-20T11:03:43;15.90;91.30
10384;DHT22;5238;43.508;4.980;2022-11-20T11:06:25;15.90;91.30
10384;DHT22;5238;43.508;4.980;2022-11-20T11:09:18;15.80;91.30
10384;DHT22;5238;43.508;4.980;2022-11-20T11:11:52;15.70;91.30
10384;DHT22;5238;43.508;4.980;2022-11-20T11:14:21;15.70;91.30
10384;DHT22;5238;43.508;4.980;2022-11-20T11:16:52;15.60;91.30
10384;DHT22;5238;43.508;4.980;2022-11-20T11:19:26;15.60;91.30
10384;DHT22;5238;43.508;4.980;2022-11-20T11:21:54;15.50;91.30
10384;DHT22;5238;43.508;4.980;2022-11-20T11:24:25;15.40;91.30
10384;DHT22;5238;43.508;4.980;2022-11-20T11:26:56;15.40;91.30
10384;DHT22;5238;43.508;4.980;2022-11-20T11:29:30;15.40;91.30
10384;DHT22;5238;43.508;4.980;2022-11-20T11:32:11;15.30;91.30
10384;DHT22;5238;43.508;4.980;2022-11-20T11:34:38;15.30;91.30
10384;DHT22;5238;43.508;4.980;2022-11-20T11:37:17;15.20;91.30
10384;DHT22;5238;43.508;4.980;2022-11-20T11:39:46;15.20;91.30
10384;DHT22;5238;43.508;4.980;2022-11-20T11:42:18;15.20;91.30
10384;DHT22;5238;43.508;4.980;2022-11-20T11:44:50;15.10;91.30
10384;DHT22;5238;43.508;4.980;2022-11-20T11:47:37;15.10;91.30
10384;DHT22;5238;43.508;4.980;2022-11-20T11:50:20;15.10;91.30
10384;DHT22;5238;43.508;4.980;2022-11-20T11:53:01;15.10;91.30
10384;DHT22;5238;43.508;4.980;2022-11-20T11:55:39;15.10;91.30
10384;DHT22;5238;43.508;4.980;2022-11-20T11:58:33;15.10;91.30
10384;DHT22;5238;43.508;4.980;2022-11-20T12:01:25;15.00;91.30
10384;DHT22;5238;43.508;4.980;2022-11-20T12:04:04;15.00;91.30
10384;DHT22;5238;43.508;4.980;2022-11-20T12:06:34;15.00;91.30
10384;DHT22;5238;43.508;4.980;2022-11-20T12:09:07;15.00;91.30
10384;DHT22;5238;43.508;4.980;2022-11-20T12:12:07;15.00;91.30
10384;DHT22;5238;43.508;4.980;2022-11-20T12:14:56;15.00;91.30
10384;DHT22;5238;43.508;4.980;2022-11-20T12:17:24;15.00;91.30
10384;DHT22;5238;43.508;4.980;2022-11-20T12:23:18;15.00;91.30
10384;DHT22;5238;43.508;4.980;2022-11-20T12:26:12;15.00;91.30
10384;DHT22;5238;43.508;4.980;2022-11-20T12:29:02;15.00;91.30
10384;DHT22;5238;43.508;4.980;2022-11-20T12:32:03;15.00;91.30
10384;DHT22;5238;43.508;4.980;2022-11-20T12:35:25;15.00;91.30
10384;DHT22;5238;43.508;4.980;2022-11-20T12:41:50;15.00;91.30
10384;DHT22;5238;43.508;4.980;2022-11-20T12:54:58;14.90;91.30
10384;DHT22;5238;43.508;4.980;2022-11-20T12:57:35;14.90;91.30
10384;DHT22;5238;43.508;4.980;2022-11-20T13:03:53;14.90;91.30
10384;DHT22;5238;43.508;4.980;2022-11-20T13:10:18;15.00;91.30
10384;DHT22;5238;43.508;4.980;2022-11-20T13:19:46;15.00;91.30
10384;DHT22;5238;43.508;4.980;2022-11-20T13:26:18;15.10;91.30
10384;DHT22;5238;43.508;4.980;2022-11-20T13:29:16;15.10;91.30
10384;DHT22;5238;43.508;4.980;2022-11-20T13:32:00;15.20;91.30
10384;DHT22;5238;43.508;4.980;2022-11-20T13:35:04;15.20;91.30
10384;DHT22;5238;43.508;4.980;2022-11-20T13:37:36;15.20;91.30
10384;DHT22;5238;43.508;4.980;2022-11-20T13:40:51;15.20;91.30
10384;DHT22;5238;43.508;4.980;2022-11-20T13:43:33;15.20;91.30
10384;DHT22;5238;43.508;4.980;2022-11-20T13:46:36;15.30;91.30
10384;DHT22;5238;43.508;4.980;2022-11-20T14:13:49;15.40;91.30
10384;DHT22;5238;43.508;4.980;2022-11-20T14:16:53;15.40;91.30
10384;DHT22;5238;43.508;4.980;2022-11-20T14:23:11;15.40;91.30
10384;DHT22;5238;43.508;4.980;2022-11-20T14:43:35;15.40;91.30
10384;DHT22;5238;43.508;4.980;2022-11-20T14:46:32;15.40;91.30
10384;DHT22;5238;43.508;4.980;2022-11-20T14:49:02;15.40;91.30
10384;DHT22;5238;43.508;4.980;2022-11-20T14:51:32;15.40;91.30
10384;DHT22;5238;43.508;4.980;2022-11-20T14:54:09;15.40;91.30
10384;DHT22;5238;43.508;4.980;2022-11-20T14:56:39;15.40;91.30
10384;DHT22;5238;43.508;4.980;2022-11-20T14:59:23;15.40;91.30
10384;DHT22;5238;43.508;4.980;2022-11-20T15:01:57;15.40;91.30
10384;DHT22;5238;43.508;4.980;2022-11-20T15:04:31;15.40;91.30
10384;DHT22;5238;43.508;4.980;2022-11-20T15:07:11;15.30;91.30
10384;DHT22;5238;43.508;4.980;2022-11-20T15:23:43;15.40;91.30
10384;DHT22;5238;43.508;4.980;2022-11-20T15:26:13;15.40;91.30
10384;DHT22;5238;43.508;4.980;2022-11-20T15:28:44;15.50;91.30
10384;DHT22;5238;43.508;4.980;2022-11-20T15:31:36;15.50;91.30
10384;DHT22;5238;43.508;4.980;2022-11-20T15:34:13;15.60;91.30
10384;DHT22;5238;43.508;4.980;2022-11-20T15:36:52;15.80;91.30
10384;DHT22;5238;43.508;4.980;2022-11-20T15:39:46;15.80;91.30
10384;DHT22;5238;43.508;4.980;2022-11-20T15:46:01;16.00;91.30
10384;DHT22;5238;43.508;4.980;2022-11-20T15:49:06;16.00;91.30
10384;DHT22;5238;43.508;4.980;2022-11-20T15:51:38;16.00;91.30
10384;DHT22;5238;43.508;4.980;2022-11-20T15:54:44;15.90;91.30
10384;DHT22;5238;43.508;4.980;2022-11-20T15:57:13;16.00;91.30
10384;DHT22;5238;43.508;4.980;2022-11-20T15:59:42;16.00;91.30
10384;DHT22;5238;43.508;4.980;2022-11-20T16:03:01;16.00;91.30
10384;DHT22;5238;43.508;4.980;2022-11-20T16:06:06;16.00;91.30
10384;DHT22;5238;43.508;4.980;2022-11-20T16:08:52;15.90;91.30
10384;DHT22;5238;43.508;4.980;2022-11-20T16:14:40;15.80;91.30
10384;DHT22;5238;43.508;4.980;2022-11-20T16:17:40;15.80;91.30
10384;DHT22;5238;43.508;4.980;2022-11-20T16:20:11;15.80;91.30
10384;DHT22;5238;43.508;4.980;2022-11-20T16:22:38;15.90;91.30
10384;DHT22;5238;43.508;4.980;2022-11-20T16:25:11;15.90;91.30
10384;DHT22;5238;43.508;4.980;2022-11-20T16:27:59;15.90;91.30
10384;DHT22;5238;43.508;4.980;2022-11-20T16:35:02;15.70;91.30
10384;DHT22;5238;43.508;4.980;2022-11-20T16:37:32;15.40;91.30
10384;DHT22;5238;43.508;4.980;2022-11-20T16:40:01;15.20;91.30
10384;DHT22;5238;43.508;4.980;2022-11-20T16:42:42;15.00;91.30
10384;DHT22;5238;43.508;4.980;2022-11-20T16:45:10;14.80;91.30
10384;DHT22;5238;43.508;4.980;2022-11-20T16:54:46;14.40;91.30
10384;DHT22;5238;43.508;4.980;2022-11-20T17:07:13;13.90;91.30
10384;DHT22;5238;43.508;4.980;2022-11-20T17:13:05;13.80;91.30
10384;DHT22;5238;43.508;4.980;2022-11-20T17:15:33;13.70;91.30
10384;DHT22;5238;43.508;4.980;2022-11-20T17:18:01;13.70;91.30
10384;DHT22;5238;43.508;4.980;2022-11-20T17:20:29;13.60;91.30
10384;DHT22;5238;43.508;4.980;2022-11-20T17:22:59;13.60;91.30
10384;DHT22;5238;43.508;4.980;2022-11-20T17:25:26;13.60;91.30
10384;DHT22;5238;43.508;4.980;2022-11-20T17:27:53;13.60;91.30
10384;DHT22;5238;43.508;4.980;2022-11-20T17:30:22;13.50;91.30
10384;DHT22;5238;43.508;4.980;2022-11-20T17:32:51;13.50;91.30
10384;DHT22;5238;43.508;4.980;2022-11-20T17:35:21;13.50;91.30
10384;DHT22;5238;43.508;4.980;2022-11-20T17:38:13;13.50;91.30
10384;DHT22;5238;43.508;4.980;2022-11-20T17:41:02;13.40;91.30
10384;DHT22;5238;43.508;4.980;2022-11-20T17:43:45;13.40;91.30
10384;DHT22;5238;43.508;4.980;2022-11-20T17:46:40;13.40;91.30
10384;DHT22;5238;43.508;4.980;2022-11-20T17:49:09;13.30;91.30
10384;DHT22;5238;43.508;4.980;2022-11-20T17:52:00;13.30;91.30
10384;DHT22;5238;43.508;4.980;2022-11-20T17:54:29;13.30;91.30
10384;DHT22;5238;43.508;4.980;2022-11-20T17:57:01;13.30;91.30
10384;DHT22;5238;43.508;4.980;2022-11-20T17:59:47;13.30;91.30
10384;DHT22;5238;43.508;4.980;2022-11-20T18:05:37;13.20;91.30
10384;DHT22;5238;43.508;4.980;2022-11-20T18:08:09;13.10;91.30
10384;DHT22;5238;43.508;4.980;2022-11-20T18:10:40;13.10;91.30
10384;DHT22;5238;43.508;4.980;2022-11-20T18:13:23;13.00;91.30
10384;DHT22;5238;43.508;4.980;2022-11-20T18:16:11;13.00;91.30
10384;DHT22;5238;43.508;4.980;2022-11-20T18:18:41;12.90;91.30
10384;DHT22;5238;43.508;4.980;2022-11-20T18:21:10;12.90;91.30
10384;DHT22;5238;43.508;4.980;2022-11-20T18:23:38;12.80;91.30
10384;DHT22;5238;43.508;4.980;2022-11-20T18:26:22;12.80;91.30
10384;DHT22;5238;43.508;4.980;2022-11-20T18:28:50;12.80;91.30
10384;DHT22;5238;43.508;4.980;2022-11-20T18:31:24;12.80;91.30
10384;DHT22;5238;43.508;4.980;2022-11-20T18:33:52;12.70;91.30
10384;DHT22;5238;43.508;4.980;2022-11-20T18:36:24;12.70;91.30
10384;DHT22;5238;43.508;4.980;2022-11-20T18:38:54;12.60;91.30
10384;DHT22;5238;43.508;4.980;2022-11-20T18:41:27;12.60;91.30
10384;DHT22;5238;43.508;4.980;2022-11-20T18:44:19;12.50;91.30
10384;DHT22;5238;43.508;4.980;2022-11-20T18:47:07;12.50;91.30
10384;DHT22;5238;43.508;4.980;2022-11-20T18:49:43;12.50;91.30
10384;DHT22;5238;43.508;4.980;2022-11-20T18:52:25;12.40;91.30
10384;DHT22;5238;43.508;4.980;2022-11-20T18:54:54;12.40;91.30
10384;DHT22;5238;43.508;4.980;2022-11-20T18:57:35;12.30;91.30
10384;DHT22;5238;43.508;4.980;2022-11-20T19:00:03;12.30;91.30
10384;DHT22;5238;43.508;4.980;2022-11-20T19:02:32;12.30;91.30
10384;DHT22;5238;43.508;4.980;2022-11-20T19:05:02;12.20;91.30
10384;DHT22;5238;43.508;4.980;2022-11-20T19:07:32;12.20;91.30
10384;DHT22;5238;43.508;4.980;2022-11-20T19:10:04;12.10;91.30
10384;DHT22;5238;43.508;4.980;2022-11-20T19:12:33;12.10;91.30
10384;DHT22;5238;43.508;4.980;2022-11-20T19:15:20;12.10;91.30
10384;DHT22;5238;43.508;4.980;2022-11-20T19:17:47;12.10;91.30
10384;DHT22;5238;43.508;4.980;2022-11-20T19:20:14;12.10;91.30
10384;DHT22;5238;43.508;4.980;2022-11-20T19:22:49;12.10;91.30
10384;DHT22;5238;43.508;4.980;2022-11-20T19:25:16;12.10;91.30
10384;DHT22;5238;43.508;4.980;2022-11-20T19:27:47;12.10;91.30
10384;DHT22;5238;43.508;4.980;2022-11-20T19:30:14;12.00;91.30
10384;DHT22;5238;43.508;4.980;2022-11-20T19:32:41;12.00;91.30
10384;DHT22;5238;43.508;4.980;2022-11-20T19:35:08;12.00;91.30
10384;DHT22;5238;43.508;4.980;2022-11-20T19:37:36;11.90;91.30
10384;DHT22;5238;43.508;4.980;2022-11-20T19:40:11;11.90;91.30
10384;DHT22;5238;43.508;4.980;2022-11-20T19:42:41;11.90;91.30
10384;DHT22;5238;43.508;4.980;2022-11-20T19:45:08;11.80;91.30
10384;DHT22;5238;43.508;4.980;2022-11-20T19:47:42;11.80;91.30
10384;DHT22;5238;43.508;4.980;2022-11-20T19:50:09;11.80;91.30
10384;DHT22;5238;43.508;4.980;2022-11-20T19:52:36;11.80;91.30
10384;DHT22;5238;43.508;4.980;2022-11-20T19:55:05;11.70;91.30
10384;DHT22;5238;43.508;4.980;2022-11-20T19:57:35;11.70;91.30
10384;DHT22;5238;43.508;4.980;2022-11-20T20:00:14;11.60;91.30
10384;DHT22;5238;43.508;4.980;2022-11-20T20:02:41;11.60;91.30
10384;DHT22;5238;43.508;4.980;2022-11-20T20:05:11;11.50;91.30
10384;DHT22;5238;43.508;4.980;2022-11-20T20:07:38;11.50;91.30
10384;DHT22;5238;43.508;4.980;2022-11-20T20:10:07;11.50;91.30
10384;DHT22;5238;43.508;4.980;2022-11-20T20:12:44;11.40;91.30
10384;DHT22;5238;43.508;4.980;2022-11-20T20:15:19;11.40;91.30
10384;DHT22;5238;43.508;4.980;2022-11-20T20:18:20;11.40;91.30
10384;DHT22;5238;43.508;4.980;2022-11-20T20:21:03;11.30;91.30
10384;DHT22;5238;43.508;4.980;2022-11-20T20:23:32;11.30;91.30
10384;DHT22;5238;43.508;4.980;2022-11-20T20:26:00;11.30;91.30
10384;DHT22;5238;43.508;4.980;2022-11-20T20:28:34;11.20;91.30
10384;DHT22;5238;43.508;4.980;2022-11-20T20:31:11;11.20;91.30
10384;DHT22;5238;43.508;4.980;2022-11-20T20:33:41;11.20;91.30
10384;DHT22;5238;43.508;4.980;2022-11-20T20:36:14;11.20;91.30
10384;DHT22;5238;43.508;4.980;2022-11-20T20:38:43;11.20;91.30
10384;DHT22;5238;43.508;4.980;2022-11-20T20:41:13;11.20;91.30
10384;DHT22;5238;43.508;4.980;2022-11-20T20:43:44;11.20;91.30
10384;DHT22;5238;43.508;4.980;2022-11-20T20:46:28;11.10;91.30
10384;DHT22;5238;43.508;4.980;2022-11-20T20:49:01;11.10;91.30
10384;DHT22;5238;43.508;4.980;2022-11-20T20:51:28;11.10;91.30
10384;DHT22;5238;43.508;4.980;2022-11-20T20:53:57;11.00;91.30
10384;DHT22;5238;43.508;4.980;2022-11-20T20:56:27;11.00;91.30
10384;DHT22;5238;43.508;4.980;2022-11-20T20:58:58;11.00;91.30
10384;DHT22;5238;43.508;4.980;2022-11-20T21:01:28;10.90;91.30
10384;DHT22;5238;43.508;4.980;2022-11-20T21:03:56;10.90;91.30
10384;DHT22;5238;43.508;4.980;2022-11-20T21:06:40;10.80;91.30
10384;DHT22;5238;43.508;4.980;2022-11-20T21:09:09;10.80;91.30
10384;DHT22;5238;43.508;4.980;2022-11-20T21:11:36;10.70;91.30
10384;DHT22;5238;43.508;4.980;2022-11-20T21:14:05;10.70;91.30
10384;DHT22;5238;43.508;4.980;2022-11-20T21:23:20;10.50;91.30
10384;DHT22;5238;43.508;4.980;2022-11-20T21:25:49;10.40;91.30
10384;DHT22;5238;43.508;4.980;2022-11-20T21:28:18;10.40;91.30
10384;DHT22;5238;43.508;4.980;2022-11-20T23:13:02;10.20;91.30
10384;DHT22;5238;43.508;4.980;2022-11-20T23:49:31;9.90;91.30
